createdAt,value
2022-11-15T00:00:12.788Z,0
2022-11-15T00:01:11.486Z,0
2022-11-15T00:02:11.177Z,0
2022-11-15T00:03:11.553Z,0.109
2022-11-15T00:04:11.086Z,0
2022-11-15T00:05:11.166Z,0.109
2022-11-15T00:06:11.481Z,0
2022-11-15T00:07:18.031Z,0
2022-11-15T00:08:11.406Z,0
2022-11-15T00:09:10.870Z,0
2022-11-15T00:10:11.128Z,0
2022-11-15T00:11:11.029Z,0.219
2022-11-15T00:12:11.215Z,0
2022-11-15T00:13:11.153Z,0
2022-11-15T00:14:11.452Z,0
2022-11-15T00:15:11.902Z,0
2022-11-15T00:16:11.075Z,0
2022-11-15T00:17:11.408Z,0
2022-11-15T00:18:10.754Z,0
2022-11-15T00:19:11.185Z,0
2022-11-15T00:20:11.639Z,0
2022-11-15T00:21:11.315Z,0
2022-11-15T00:22:11.681Z,0
2022-11-15T00:23:11.342Z,0
2022-11-15T00:24:11.577Z,0
2022-11-15T00:25:11.111Z,0
2022-11-15T00:26:11.424Z,0
2022-11-15T00:27:11.223Z,0
2022-11-15T00:28:11.135Z,0
2022-11-15T00:29:11.099Z,0
2022-11-15T00:30:11.733Z,0
2022-11-15T00:31:10.917Z,0
2022-11-15T00:32:10.982Z,0
2022-11-15T00:33:11.191Z,0
2022-11-15T00:34:11.266Z,0
2022-11-15T00:35:11.017Z,0
2022-11-15T00:36:11.260Z,0
2022-11-15T00:37:11.209Z,0
2022-11-15T00:38:11.333Z,0
2022-11-15T00:39:11.381Z,0
2022-11-15T00:40:11.370Z,0
2022-11-15T00:41:11.373Z,0
2022-11-15T00:42:11.560Z,0
2022-11-15T00:43:11.749Z,0
2022-11-15T00:44:11.006Z,0
2022-11-15T00:45:11.430Z,0.109
2022-11-15T00:46:11.817Z,0
2022-11-15T00:47:10.957Z,0
2022-11-15T00:48:11.014Z,0.109
2022-11-15T00:49:11.108Z,0
2022-11-15T00:50:16.470Z,0
2022-11-15T00:51:11.569Z,0
2022-11-15T00:52:11.518Z,0
2022-11-15T00:53:11.172Z,0
2022-11-15T00:54:11.511Z,0
2022-11-15T00:55:11.692Z,0
2022-11-15T00:56:10.940Z,0
2022-11-15T00:57:11.190Z,0
2022-11-15T00:58:10.928Z,0
2022-11-15T00:59:10.916Z,0
2022-11-15T01:00:11.894Z,0
2022-11-15T01:01:13.311Z,0
2022-11-15T01:03:11.251Z,0
2022-11-15T01:04:11.507Z,0.109
2022-11-15T01:05:11.358Z,0
2022-11-15T01:06:11.394Z,0
2022-11-15T01:07:11.380Z,0
2022-11-15T01:08:11.108Z,0
2022-11-15T01:09:11.081Z,0
2022-11-15T01:10:11.430Z,0.100
2022-11-15T01:11:11.749Z,0
2022-11-15T01:12:11.131Z,0
2022-11-15T01:13:11.203Z,0
2022-11-15T01:14:25.686Z,0
2022-11-15T01:15:11.788Z,0
2022-11-15T01:16:10.855Z,0.119
2022-11-15T01:17:11.045Z,0
2022-11-15T01:18:25.761Z,0
2022-11-15T01:19:11.516Z,0
2022-11-15T01:20:10.832Z,0
2022-11-15T01:21:11.087Z,0
2022-11-15T01:22:11.049Z,0
2022-11-15T01:23:10.841Z,0
2022-11-15T01:24:11.071Z,0
2022-11-15T01:25:11.598Z,0
2022-11-15T01:26:11.605Z,0
2022-11-15T01:27:10.871Z,0
2022-11-15T01:28:11.125Z,0
2022-11-15T01:29:11.196Z,0
2022-11-15T01:30:11.702Z,0
2022-11-15T01:31:10.921Z,0
2022-11-15T01:32:11.219Z,0
2022-11-15T01:33:11.701Z,0.109
2022-11-15T01:34:11.202Z,0
2022-11-15T01:35:11.608Z,0
2022-11-15T01:36:10.877Z,0
2022-11-15T01:37:11.125Z,0
2022-11-15T01:38:11.063Z,0
2022-11-15T01:39:11.280Z,0
2022-11-15T01:40:11.265Z,0
2022-11-15T01:41:11.380Z,0
2022-11-15T01:42:10.829Z,0
2022-11-15T01:43:11.093Z,0.109
2022-11-15T01:44:11.272Z,0
2022-11-15T01:45:12.160Z,0
2022-11-15T01:46:11.279Z,0
2022-11-15T01:47:11.456Z,0
2022-11-15T01:48:10.870Z,0
2022-11-15T01:49:11.190Z,0
2022-11-15T01:50:11.198Z,0
2022-11-15T01:51:11.197Z,0
2022-11-15T01:52:11.410Z,0
2022-11-15T01:53:11.603Z,0
2022-11-15T01:54:11.155Z,0
2022-11-15T01:55:11.437Z,0
2022-11-15T01:56:11.233Z,0
2022-11-15T01:57:11.467Z,0
2022-11-15T01:58:11.013Z,0
2022-11-15T01:59:11.354Z,0
2022-11-15T02:00:11.372Z,0.109
2022-11-15T02:01:11.348Z,0
2022-11-15T02:02:11.366Z,0
2022-11-15T02:03:10.949Z,0
2022-11-15T02:04:11.662Z,0.219
2022-11-15T02:05:11.407Z,0.340
2022-11-15T02:06:11.611Z,0.109
2022-11-15T02:07:11.270Z,0.219
2022-11-15T02:08:11.691Z,0
2022-11-15T02:09:11.482Z,0.219
2022-11-15T02:10:11.176Z,0.109
2022-11-15T02:11:11.549Z,0
2022-11-15T02:12:10.907Z,0
2022-11-15T02:13:11.287Z,0.109
2022-11-15T02:14:11.030Z,0.340
2022-11-15T02:15:11.575Z,0.109
2022-11-15T02:16:11.103Z,0
2022-11-15T02:17:11.485Z,0
2022-11-15T02:18:11.360Z,0
2022-11-15T02:19:11.600Z,0
2022-11-15T02:20:11.096Z,0
2022-11-15T02:21:11.538Z,0
2022-11-15T02:22:11.075Z,0
2022-11-15T02:23:11.238Z,0
2022-11-15T02:24:11.025Z,0
2022-11-15T02:25:11.463Z,0
2022-11-15T02:26:11.003Z,0
2022-11-15T02:27:11.474Z,0.109
2022-11-15T02:28:11.182Z,0.109
2022-11-15T02:29:11.440Z,0
2022-11-15T02:30:12.199Z,0.109
2022-11-15T02:31:11.103Z,0.119
2022-11-15T02:32:11.390Z,0
2022-11-15T02:33:11.439Z,0
2022-11-15T02:34:11.803Z,0.340
2022-11-15T02:35:10.775Z,0.310
2022-11-15T02:36:10.897Z,0.490
2022-11-15T02:37:12.057Z,0.219
2022-11-15T02:38:10.743Z,0.219
2022-11-15T02:39:11.142Z,0.109
2022-11-15T02:40:11.405Z,0
2022-11-15T02:41:11.516Z,0
2022-11-15T02:42:11.388Z,0
2022-11-15T02:43:10.993Z,0
2022-11-15T02:44:10.874Z,0
2022-11-15T02:45:10.392Z,0
2022-11-15T02:46:11.103Z,0
2022-11-15T02:47:11.370Z,0
2022-11-15T02:48:11.523Z,0
2022-11-15T02:49:11.683Z,0
2022-11-15T02:50:11.065Z,0
2022-11-15T02:51:11.361Z,0
2022-11-15T02:52:11.246Z,0
2022-11-15T02:53:11.354Z,0
2022-11-15T02:54:11.782Z,0.109
2022-11-15T02:55:11.260Z,0
2022-11-15T02:56:11.378Z,0
2022-11-15T02:57:11.442Z,0
2022-11-15T02:58:10.850Z,0
2022-11-15T02:59:10.772Z,0
2022-11-15T03:00:11.441Z,0
2022-11-15T03:01:11.101Z,0
2022-11-15T03:02:11.453Z,0
2022-11-15T03:03:11.667Z,0
2022-11-15T03:04:10.808Z,0
2022-11-15T03:05:11.444Z,0
2022-11-15T03:06:11.042Z,0
2022-11-15T03:07:11.350Z,0
2022-11-15T03:08:11.688Z,0
2022-11-15T03:09:10.826Z,0.219
2022-11-15T03:10:11.205Z,0.109
2022-11-15T03:11:11.078Z,0
2022-11-15T03:12:11.280Z,0.109
2022-11-15T03:13:11.444Z,0
2022-11-15T03:14:10.749Z,0
2022-11-15T03:15:11.247Z,0
2022-11-15T03:16:11.549Z,0.119
2022-11-15T03:17:11.664Z,0
2022-11-15T03:18:10.729Z,0
2022-11-15T03:19:10.980Z,0
2022-11-15T03:20:11.278Z,0
2022-11-15T03:21:11.285Z,0
2022-11-15T03:22:11.459Z,0
2022-11-15T03:23:11.734Z,0
2022-11-15T03:24:11.529Z,0.109
2022-11-15T03:25:11.640Z,0
2022-11-15T03:26:10.815Z,0
2022-11-15T03:27:11.018Z,0
2022-11-15T03:28:11.357Z,0
2022-11-15T03:29:11.328Z,0
2022-11-15T03:30:11.574Z,0
2022-11-15T03:31:11.502Z,0
2022-11-15T03:32:10.819Z,0
2022-11-15T03:33:11.067Z,0
2022-11-15T03:34:11.312Z,0.109
2022-11-15T03:35:11.339Z,0.109
2022-11-15T03:36:11.294Z,0
2022-11-15T03:37:25.673Z,0
2022-11-15T03:38:11.402Z,0
2022-11-15T03:39:13.224Z,0
2022-11-15T03:40:11.649Z,0
2022-11-15T03:41:10.754Z,0
2022-11-15T03:42:10.821Z,0
2022-11-15T03:43:11.767Z,0
2022-11-15T03:44:10.681Z,0
2022-11-15T03:45:10.966Z,0
2022-11-15T03:46:11.228Z,0
2022-11-15T03:47:11.550Z,0
2022-11-15T03:48:11.003Z,0.109
2022-11-15T03:49:11.510Z,0
2022-11-15T03:50:11.724Z,0
2022-11-15T03:51:11.175Z,0
2022-11-15T03:52:11.359Z,0.119
2022-11-15T03:53:11.469Z,0.100
2022-11-15T03:54:11.802Z,0
2022-11-15T03:55:11.125Z,0.239
2022-11-15T03:56:11.445Z,0
2022-11-15T03:57:11.689Z,0
2022-11-15T03:58:10.768Z,0
2022-11-15T03:59:10.937Z,0.100
2022-11-15T04:00:11.807Z,0.239
2022-11-15T04:01:11.309Z,0
2022-11-15T04:02:11.008Z,0
2022-11-15T04:03:11.624Z,0
2022-11-15T04:04:10.787Z,0.109
2022-11-15T04:05:11.233Z,0.109
2022-11-15T04:06:11.593Z,0
2022-11-15T04:07:11.881Z,0.340
2022-11-15T04:08:10.752Z,0
2022-11-15T04:09:10.895Z,0.109
2022-11-15T04:10:11.358Z,0.109
2022-11-15T04:11:10.846Z,0
2022-11-15T04:12:11.282Z,0
2022-11-15T04:13:11.660Z,0
2022-11-15T04:14:10.805Z,0.109
2022-11-15T04:15:10.878Z,0.219
2022-11-15T04:16:11.068Z,0.109
2022-11-15T04:17:11.172Z,0
2022-11-15T04:18:11.153Z,0
2022-11-15T04:19:11.584Z,0.219
2022-11-15T04:20:11.128Z,0
2022-11-15T04:21:11.267Z,0
2022-11-15T04:22:11.648Z,0
2022-11-15T04:23:11.103Z,0
2022-11-15T04:24:11.492Z,0
2022-11-15T04:25:11.015Z,0
2022-11-15T04:26:11.355Z,0
2022-11-15T04:27:11.593Z,0
2022-11-15T04:28:10.908Z,0.119
2022-11-15T04:29:11.042Z,0
2022-11-15T04:30:11.518Z,0
2022-11-15T04:31:10.694Z,0
2022-11-15T04:32:11.114Z,0
2022-11-15T04:33:11.542Z,0
2022-11-15T04:34:11.076Z,0
2022-11-15T04:35:11.538Z,0
2022-11-15T04:36:10.878Z,0
2022-11-15T04:37:10.879Z,0
2022-11-15T04:38:11.227Z,0
2022-11-15T04:39:11.354Z,0
2022-11-15T04:40:11.638Z,0
2022-11-15T04:41:10.974Z,0
2022-11-15T04:42:10.917Z,0
2022-11-15T04:43:11.072Z,0
2022-11-15T04:44:11.277Z,0
2022-11-15T04:45:11.844Z,0
2022-11-15T04:46:11.025Z,0
2022-11-15T04:47:11.138Z,0
2022-11-15T04:48:11.479Z,0
2022-11-15T04:49:11.600Z,0
2022-11-15T04:50:10.905Z,0
2022-11-15T04:51:11.812Z,0
2022-11-15T04:52:11.355Z,0
2022-11-15T04:53:11.593Z,0
2022-11-15T04:54:11.728Z,0
2022-11-15T04:55:11.093Z,0
2022-11-15T04:56:10.944Z,0
2022-11-15T04:57:11.013Z,0
2022-11-15T04:58:11.310Z,0
2022-11-15T04:59:11.553Z,0.109
2022-11-15T05:00:11.307Z,0
2022-11-15T05:01:10.924Z,0
2022-11-15T05:02:11.367Z,0
2022-11-15T05:03:11.597Z,0
2022-11-15T05:04:11.058Z,0
2022-11-15T05:05:11.621Z,0
2022-11-15T05:06:10.849Z,0.109
2022-11-15T05:07:11.591Z,0
2022-11-15T05:08:11.183Z,0
2022-11-15T05:09:11.361Z,0
2022-11-15T05:10:11.481Z,0.109
2022-11-15T05:11:10.925Z,0.109
2022-11-15T05:12:11.410Z,0
2022-11-15T05:13:11.493Z,0.100
2022-11-15T05:14:11.636Z,0
2022-11-15T05:15:11.189Z,0
2022-11-15T05:16:11.548Z,0
2022-11-15T05:17:10.775Z,0
2022-11-15T05:18:11.338Z,0.370
2022-11-15T05:19:11.295Z,0.340
2022-11-15T05:20:11.167Z,0.310
2022-11-15T05:21:11.532Z,0.370
2022-11-15T05:22:10.972Z,0.340
2022-11-15T05:23:11.111Z,0.219
2022-11-15T05:24:11.223Z,0.340
2022-11-15T05:25:11.707Z,0.109
2022-11-15T05:26:11.746Z,0.109
2022-11-15T05:27:10.998Z,0.219
2022-11-15T05:28:10.981Z,0.219
2022-11-15T05:29:11.318Z,0.449
2022-11-15T05:30:11.828Z,0.109
2022-11-15T05:31:11.399Z,0.449
2022-11-15T05:32:11.594Z,0.560
2022-11-15T05:33:10.736Z,0.560
2022-11-15T05:34:11.097Z,0.449
2022-11-15T05:35:11.442Z,0.340
2022-11-15T05:36:11.447Z,0.560
2022-11-15T05:37:11.083Z,0.449
2022-11-15T05:38:11.560Z,0.449
2022-11-15T05:39:11.140Z,0.790
2022-11-15T05:40:11.880Z,0.409
2022-11-15T05:41:11.643Z,0.740
2022-11-15T05:42:12.833Z,0.680
2022-11-15T05:43:11.406Z,0
2022-11-15T05:44:11.197Z,0
2022-11-15T05:45:12.009Z,0
2022-11-15T05:46:11.615Z,0
2022-11-15T05:47:12.110Z,0
2022-11-15T05:48:11.990Z,0
2022-11-15T05:49:11.651Z,0
2022-11-15T05:50:11.323Z,0
2022-11-15T05:51:11.170Z,0
2022-11-15T05:52:12.790Z,0
2022-11-15T05:53:11.165Z,0
2022-11-15T05:54:12.179Z,0
2022-11-15T05:55:12.027Z,0
2022-11-15T05:56:11.491Z,0
2022-11-15T05:57:11.312Z,13600
2022-11-15T05:58:11.215Z,0
2022-11-15T05:59:10.544Z,0
2022-11-15T06:00:11.813Z,0
2022-11-15T06:01:11.566Z,0
2022-11-15T06:02:11.421Z,0
2022-11-15T06:03:11.260Z,0
2022-11-15T06:04:10.729Z,0
2022-11-15T06:05:11.720Z,0
2022-11-15T06:06:16.190Z,0
2022-11-15T06:07:11.792Z,0
2022-11-15T06:08:11.348Z,0
2022-11-15T06:09:12.094Z,13600
2022-11-15T06:10:11.539Z,0
2022-11-15T06:11:11.127Z,0
2022-11-15T06:12:12.051Z,0
2022-11-15T06:13:11.790Z,0
2022-11-15T06:14:11.327Z,0.519
2022-11-15T06:15:12.500Z,0.159
2022-11-15T06:16:10.797Z,0.670
2022-11-15T06:17:11.654Z,0.790
2022-11-15T06:18:10.829Z,1.220
2022-11-15T06:19:11.476Z,1.899
2022-11-15T06:20:11.684Z,2.529
2022-11-15T06:21:11.027Z,3.190
2022-11-15T06:22:11.737Z,4.110
2022-11-15T06:23:11.515Z,4.989
2022-11-15T06:24:11.564Z,6.230
2022-11-15T06:25:11.769Z,7.460
2022-11-15T06:26:11.132Z,8.979
2022-11-15T06:27:12.160Z,10.48
2022-11-15T06:28:11.968Z,12.35
2022-11-15T06:29:11.832Z,14.39
2022-11-15T06:30:11.961Z,17.29
2022-11-15T06:31:12.112Z,20.79
2022-11-15T06:32:11.582Z,24.89
2022-11-15T06:33:12.113Z,29.70
2022-11-15T06:34:11.557Z,35
2022-11-15T06:35:11.264Z,40.29
2022-11-15T06:36:17.052Z,46.70
2022-11-15T06:37:12.262Z,52.79
2022-11-15T06:38:10.952Z,59.40
2022-11-15T06:39:11.307Z,66.30
2022-11-15T06:40:11.213Z,74.19
2022-11-15T06:41:11.267Z,82.30
2022-11-15T06:42:10.909Z,90.69
2022-11-15T06:43:11.423Z,98.90
2022-11-15T06:44:12.133Z,107.0
2022-11-15T06:45:10.904Z,115.0
2022-11-15T06:46:11.642Z,123.0
2022-11-15T06:47:12.042Z,132.1
2022-11-15T06:48:11.577Z,141
2022-11-15T06:49:11.946Z,153
2022-11-15T06:50:11.949Z,163.3
2022-11-15T06:51:12.221Z,172
2022-11-15T06:52:11.600Z,182
2022-11-15T06:53:12.468Z,194
2022-11-15T06:54:11.806Z,211
2022-11-15T06:55:12.176Z,230
2022-11-15T06:56:11.488Z,250
2022-11-15T06:57:12.039Z,273
2022-11-15T06:58:12.122Z,297
2022-11-15T06:59:11.774Z,322
2022-11-15T07:00:12.376Z,349
2022-11-15T07:01:11.793Z,374
2022-11-15T07:02:11.881Z,398
2022-11-15T07:03:12.296Z,422
2022-11-15T07:04:11.416Z,447
2022-11-15T07:05:11.872Z,474
2022-11-15T07:06:11.683Z,502
2022-11-15T07:07:11.945Z,532
2022-11-15T07:08:10.897Z,563
2022-11-15T07:09:12.328Z,594
2022-11-15T07:10:11.580Z,626
2022-11-15T07:11:11.969Z,650
2022-11-15T07:12:12.248Z,690
2022-11-15T07:13:11.776Z,720
2022-11-15T07:14:11.908Z,760
2022-11-15T07:15:12.557Z,800
2022-11-15T07:16:11.751Z,840
2022-11-15T07:17:12.045Z,880
2022-11-15T07:18:12.588Z,910
2022-11-15T07:19:11.992Z,950
2022-11-15T07:20:11.396Z,990
2022-11-15T07:21:11.801Z,1030
2022-11-15T07:22:11.753Z,1070
2022-11-15T07:23:12.337Z,1110
2022-11-15T07:24:11.677Z,1150
2022-11-15T07:25:12.052Z,1190
2022-11-15T07:26:12.182Z,1240
2022-11-15T07:27:11.794Z,1280
2022-11-15T07:28:12.273Z,1320
2022-11-15T07:29:11.483Z,1360
2022-11-15T07:30:14.499Z,1400
2022-11-15T07:31:11.549Z,1440
2022-11-15T07:32:11.952Z,1490
2022-11-15T07:33:12.027Z,1530
2022-11-15T07:34:12.319Z,1570
2022-11-15T07:35:11.962Z,1610
2022-11-15T07:36:12.301Z,1650
2022-11-15T07:37:11.838Z,1680
2022-11-15T07:38:12.204Z,1710
2022-11-15T07:39:11.867Z,1760
2022-11-15T07:40:12.857Z,1800
2022-11-15T07:41:12.289Z,1850
2022-11-15T07:42:11.983Z,1900
2022-11-15T07:43:12.423Z,1940
2022-11-15T07:44:11.732Z,1974
2022-11-15T07:45:12.156Z,1989
2022-11-15T07:46:12.011Z,2015
2022-11-15T07:47:11.644Z,2039
2022-11-15T07:48:11.651Z,2063
2022-11-15T07:49:12.142Z,2090
2022-11-15T07:50:12.569Z,2130
2022-11-15T07:51:14.162Z,2170
2022-11-15T07:52:11.859Z,2230
2022-11-15T07:53:11.769Z,2300
2022-11-15T07:54:12.266Z,2000
2022-11-15T07:55:12.280Z,2870
2022-11-15T07:56:11.821Z,2860
2022-11-15T07:57:12.406Z,2900
2022-11-15T07:58:11.625Z,3100
2022-11-15T07:59:11.713Z,3000
2022-11-15T08:00:13.295Z,3100
2022-11-15T08:01:12.184Z,3000
2022-11-15T08:02:12.448Z,3300
2022-11-15T08:03:11.859Z,3000
2022-11-15T08:04:11.847Z,3000
2022-11-15T08:05:12.451Z,3200
2022-11-15T08:06:12.294Z,3000
2022-11-15T08:07:16.844Z,3400
2022-11-15T08:08:12.338Z,3300
2022-11-15T08:09:17.054Z,3240
2022-11-15T08:10:11.418Z,3300
2022-11-15T08:11:11.137Z,3410
2022-11-15T08:12:11.147Z,3400
2022-11-15T08:13:12.042Z,3620
2022-11-15T08:14:11.188Z,3700
2022-11-15T08:15:12.149Z,4000
2022-11-15T08:16:11.636Z,4000
2022-11-15T08:17:16.596Z,4000
2022-11-15T08:18:12.116Z,4300
2022-11-15T08:19:11.986Z,4000
2022-11-15T08:20:11.688Z,3000
2022-11-15T08:21:15.650Z,3350
2022-11-15T08:22:12.066Z,3341
2022-11-15T08:23:11.525Z,3359
2022-11-15T08:24:11.330Z,3390
2022-11-15T08:25:11.838Z,3440
2022-11-15T08:26:11.576Z,3490
2022-11-15T08:27:11.317Z,3500
2022-11-15T08:28:11.446Z,3600
2022-11-15T08:29:11.806Z,3800
2022-11-15T08:30:11.706Z,3900
2022-11-15T08:31:11.459Z,4000
2022-11-15T08:32:11.359Z,4050
2022-11-15T08:33:10.988Z,4110
2022-11-15T08:34:11.816Z,4190
2022-11-15T08:35:12.239Z,4254
2022-11-15T08:36:11.106Z,4290
2022-11-15T08:37:11.872Z,4360
2022-11-15T08:38:11.552Z,4420
2022-11-15T08:39:11.506Z,4500
2022-11-15T08:40:11.801Z,4560
2022-11-15T08:41:11.534Z,4650
2022-11-15T08:42:15.705Z,4683
2022-11-15T08:43:11.972Z,4692
2022-11-15T08:44:12.101Z,4716
2022-11-15T08:45:12.196Z,4736.
2022-11-15T08:46:11.756Z,4760
2022-11-15T08:47:11.221Z,4800
2022-11-15T08:48:11.864Z,4900
2022-11-15T08:49:11.637Z,5000
2022-11-15T08:50:11.420Z,5174.
2022-11-15T08:51:11.297Z,5189
2022-11-15T08:52:11.136Z,5190
2022-11-15T08:53:11.272Z,5110
2022-11-15T08:54:11.621Z,5120
2022-11-15T08:55:33.158Z,5200
2022-11-15T08:56:11.372Z,5300
2022-11-15T08:57:11.681Z,5500
2022-11-15T08:58:11.725Z,5700
2022-11-15T08:59:11.429Z,5900
2022-11-15T09:00:12.795Z,6000
2022-11-15T09:01:16.074Z,6420
2022-11-15T09:02:11.604Z,6452
2022-11-15T09:03:11.419Z,6424
2022-11-15T09:04:11.097Z,6440
2022-11-15T09:05:11.800Z,6000
2022-11-15T09:06:11.860Z,6860
2022-11-15T09:07:11.236Z,6900
2022-11-15T09:08:40.433Z,6880
2022-11-15T09:09:11.451Z,6820
2022-11-15T09:10:12.443Z,6000
2022-11-15T09:12:12.239Z,7000
2022-11-15T09:13:11.877Z,7010
2022-11-15T09:14:11.952Z,6950
2022-11-15T09:15:11.718Z,6900
2022-11-15T09:16:11.378Z,7000
2022-11-15T09:17:11.236Z,7000
2022-11-15T09:18:11.682Z,6850
2022-11-15T09:19:12.062Z,6850
2022-11-15T09:20:12.044Z,6800
2022-11-15T09:21:11.461Z,7000
2022-11-15T09:22:11.466Z,7300
2022-11-15T09:23:11.233Z,7500
2022-11-15T09:24:11.084Z,7000
2022-11-15T09:25:11.903Z,7900
2022-11-15T09:26:11.555Z,7960
2022-11-15T09:27:11.254Z,8000
2022-11-15T09:28:11.464Z,8100
2022-11-15T09:29:11.481Z,8020
2022-11-15T09:30:11.391Z,7980
2022-11-15T09:31:11.814Z,7880
2022-11-15T09:32:11.426Z,7700
2022-11-15T09:33:11.323Z,7500
2022-11-15T09:34:12.430Z,7300
2022-11-15T09:35:11.276Z,7100
2022-11-15T09:36:12.074Z,7100
2022-11-15T09:37:11.830Z,7200
2022-11-15T09:38:11.414Z,7000
2022-11-15T09:39:11.774Z,7010
2022-11-15T09:40:11.863Z,6980
2022-11-15T09:41:11.502Z,6800
2022-11-15T09:42:11.546Z,6000
2022-11-15T09:43:11.702Z,6420
2022-11-15T09:44:11.746Z,6350
2022-11-15T09:45:12.008Z,6330
2022-11-15T09:46:11.602Z,6200
2022-11-15T09:47:11.468Z,6196
2022-11-15T09:48:11.076Z,6240
2022-11-15T09:49:11.194Z,6292.
2022-11-15T09:50:11.017Z,6310
2022-11-15T09:51:11.770Z,6340
2022-11-15T09:52:11.592Z,6260
2022-11-15T09:53:12.550Z,6259
2022-11-15T09:54:51.578Z,6280
2022-11-15T09:55:11.415Z,6300
2022-11-15T09:56:11.584Z,6230
2022-11-15T09:57:16.013Z,6194
2022-11-15T09:58:11.472Z,6100
2022-11-15T09:59:11.429Z,5900
2022-11-15T10:00:44.076Z,5700
2022-11-15T10:01:12.167Z,5600
2022-11-15T10:02:12.203Z,5490
2022-11-15T10:03:11.382Z,5430
2022-11-15T10:04:12.107Z,5420
2022-11-15T10:05:11.334Z,5408
2022-11-15T10:06:11.098Z,5390
2022-11-15T10:07:11.350Z,5470
2022-11-15T10:08:10.552Z,5540
2022-11-15T10:09:10.862Z,5596
2022-11-15T10:10:11.917Z,5580
2022-11-15T10:11:36.619Z,5600
2022-11-15T10:12:11.535Z,5720
2022-11-15T10:13:11.680Z,5720
2022-11-15T10:14:11.173Z,5714.
2022-11-15T10:15:12.134Z,5690
2022-11-15T10:16:11.261Z,5640
2022-11-15T10:17:11.510Z,5620
2022-11-15T10:18:10.754Z,5530
2022-11-15T10:19:10.991Z,5460
2022-11-15T10:20:11.510Z,5370
2022-11-15T10:21:11.059Z,5340
2022-11-15T10:22:12.008Z,5400
2022-11-15T10:23:11.385Z,5460
2022-11-15T10:24:11.554Z,5500
2022-11-15T10:25:11.783Z,5700
2022-11-15T10:26:11.305Z,5900
2022-11-15T10:27:11.403Z,6000
2022-11-15T10:28:11.570Z,6000
2022-11-15T10:29:11.742Z,6900
2022-11-15T10:30:12.156Z,7000
2022-11-15T10:31:14.387Z,7000
2022-11-15T10:32:16.730Z,8000
2022-11-15T10:33:11.760Z,8000
2022-11-15T10:34:11.553Z,9000
2022-11-15T10:35:11.526Z,10000
2022-11-15T10:36:17.230Z,10000
2022-11-15T10:37:11.946Z,10660
2022-11-15T10:38:11.661Z,10000
2022-11-15T10:39:11.855Z,10000
2022-11-15T10:40:11.573Z,9000
2022-11-15T10:41:11.656Z,9500
2022-11-15T10:42:15.330Z,9300
2022-11-15T10:43:11.972Z,9241
2022-11-15T10:44:12.101Z,9300
2022-11-15T10:45:11.614Z,9371
2022-11-15T10:46:39.415Z,9200
2022-11-15T10:47:11.611Z,9200
2022-11-15T10:48:11.620Z,9000
2022-11-15T10:49:11.562Z,8000
2022-11-15T10:50:11.579Z,7000
2022-11-15T10:51:11.666Z,7000
2022-11-15T10:52:25.301Z,7000
2022-11-15T10:53:11.593Z,6700
2022-11-15T10:54:25.677Z,6590
2022-11-15T10:55:11.416Z,6572.
2022-11-15T10:56:25.477Z,6570.
2022-11-15T10:57:14.034Z,6566
2022-11-15T10:58:25.553Z,6530
2022-11-15T10:59:11.831Z,6470
2022-11-15T11:00:12.483Z,6380
2022-11-15T11:01:11.962Z,6400
2022-11-15T11:02:11.916Z,6400
2022-11-15T11:03:11.745Z,6350
2022-11-15T11:04:12.536Z,6316
2022-11-15T11:05:12.269Z,6260
2022-11-15T11:06:12.027Z,6100
2022-11-15T11:07:11.903Z,5900
2022-11-15T11:08:11.561Z,5700
2022-11-15T11:09:12.160Z,5600
2022-11-15T11:10:36.148Z,5520
2022-11-15T11:11:11.648Z,5510
2022-11-15T11:12:12.516Z,5560
2022-11-15T11:13:12.365Z,5620
2022-11-15T11:14:11.969Z,5680
2022-11-15T11:15:12.094Z,5712
2022-11-15T11:16:12.263Z,5660
2022-11-15T11:17:11.760Z,5580
2022-11-15T11:18:12.195Z,5400
2022-11-15T11:19:12.009Z,5300
2022-11-15T11:20:12.028Z,5280
2022-11-15T11:21:12.091Z,5200
2022-11-15T11:22:11.670Z,5000
2022-11-15T11:23:11.440Z,5000
2022-11-15T11:24:11.975Z,4930
2022-11-15T11:25:12.226Z,4860
2022-11-15T11:26:12.020Z,4700
2022-11-15T11:27:12.795Z,4680
2022-11-15T11:28:12.368Z,4650
2022-11-15T11:29:11.913Z,4600
2022-11-15T11:30:13.077Z,4400
2022-11-15T11:31:11.862Z,4300
2022-11-15T11:32:12.510Z,4100
2022-11-15T11:33:12.321Z,3900
2022-11-15T11:34:11.242Z,3600
2022-11-15T11:35:12.109Z,3400
2022-11-15T11:36:11.691Z,3370
2022-11-15T11:37:11.404Z,3290
2022-11-15T11:38:11.305Z,3246
2022-11-15T11:39:11.440Z,3236.
2022-11-15T11:40:11.791Z,3217
2022-11-15T11:41:11.499Z,3200
2022-11-15T11:42:11.563Z,3206.
2022-11-15T11:43:11.317Z,3180
2022-11-15T11:44:11.432Z,3120
2022-11-15T11:45:11.522Z,3060
2022-11-15T11:46:11.619Z,2990
2022-11-15T11:47:11.233Z,2950
2022-11-15T11:48:12.079Z,2922
2022-11-15T11:49:10.988Z,2890
2022-11-15T11:50:11.385Z,2862
2022-11-15T11:51:11.975Z,2847
2022-11-15T11:52:11.683Z,2826
2022-11-15T11:53:13.694Z,2795
2022-11-15T11:54:11.453Z,2784.
2022-11-15T11:55:11.500Z,2779.
2022-11-15T11:56:12.053Z,2779.
2022-11-15T11:57:11.831Z,2773.
2022-11-15T11:58:11.751Z,2775
2022-11-15T11:59:11.542Z,2790
2022-11-15T12:00:12.182Z,2821
2022-11-15T12:01:12.920Z,2850
2022-11-15T12:02:12.094Z,2910
2022-11-15T12:03:11.665Z,2900
2022-11-15T12:04:11.825Z,3100
2022-11-15T12:05:11.785Z,3200
2022-11-15T12:06:11.612Z,3300
2022-11-15T12:07:11.725Z,3600
2022-11-15T12:08:11.778Z,3800
2022-11-15T12:09:11.742Z,4000
2022-11-15T12:10:11.741Z,4130
2022-11-15T12:11:11.817Z,4157.
2022-11-15T12:12:11.803Z,4172
2022-11-15T12:13:11.391Z,4200
2022-11-15T12:14:11.500Z,4260
2022-11-15T12:15:11.349Z,4292
2022-11-15T12:16:11.337Z,4300
2022-11-15T12:17:11.406Z,4500
2022-11-15T12:18:11.322Z,4650
2022-11-15T12:19:11.074Z,4679
2022-11-15T12:20:12.287Z,4700
2022-11-15T12:21:11.617Z,5000
2022-11-15T12:22:11.926Z,5000
2022-11-15T12:23:12.279Z,6000
2022-11-15T12:24:11.341Z,6000
2022-11-15T12:25:11.516Z,7000
2022-11-15T12:26:11.371Z,7450
2022-11-15T12:27:11.569Z,7467
2022-11-15T12:28:11.274Z,7510
2022-11-15T12:29:11.296Z,7600
2022-11-15T12:30:12.383Z,7000
2022-11-15T12:31:11.932Z,8200
2022-11-15T12:32:11.887Z,8100
2022-11-15T12:33:11.576Z,8080
2022-11-15T12:34:11.526Z,8140
2022-11-15T12:35:11.487Z,8150
2022-11-15T12:36:11.188Z,8200
2022-11-15T12:37:12.189Z,8600
2022-11-15T12:38:11.196Z,8790
2022-11-15T12:39:11.343Z,8730
2022-11-15T12:40:12.017Z,8500
2022-11-15T12:41:11.710Z,8000
2022-11-15T12:42:12.043Z,7000
2022-11-15T12:43:11.973Z,7000
2022-11-15T12:44:11.447Z,6000
2022-11-15T12:45:11.723Z,6000
2022-11-15T12:46:11.349Z,5000
2022-11-15T12:47:12.320Z,5100
2022-11-15T12:48:11.972Z,4900
2022-11-15T12:49:11.947Z,4903
2022-11-15T12:50:11.720Z,4908
2022-11-15T12:51:11.559Z,4930
2022-11-15T12:52:11.610Z,5000
2022-11-15T12:53:11.509Z,5200
2022-11-15T12:54:11.195Z,5400
2022-11-15T12:55:12.094Z,5600
2022-11-15T12:56:11.404Z,5700
2022-11-15T12:57:11.822Z,5723
2022-11-15T12:58:11.804Z,5690
2022-11-15T12:59:11.317Z,5500
2022-11-15T13:00:11.381Z,5510
2022-11-15T13:01:11.106Z,5549
2022-11-15T13:02:11.902Z,5553
2022-11-15T13:03:11.632Z,5540
2022-11-15T13:04:11.268Z,5590
2022-11-15T13:05:17.213Z,5600
2022-11-15T13:06:11.827Z,5780
2022-11-15T13:07:11.806Z,5800
2022-11-15T13:08:11.917Z,5000
2022-11-15T13:09:12.219Z,5200
2022-11-15T13:10:12.013Z,5000
2022-11-15T13:11:11.904Z,4000
2022-11-15T13:12:12.034Z,5000
2022-11-15T13:13:11.762Z,4000
2022-11-15T13:14:11.624Z,4000
2022-11-15T13:15:25.788Z,4030
2022-11-15T13:16:11.621Z,4000
2022-11-15T13:17:25.562Z,4080
2022-11-15T13:18:12.185Z,4020
2022-11-15T13:19:25.621Z,3900
2022-11-15T13:20:11.040Z,3600
2022-11-15T13:21:12.062Z,3500
2022-11-15T13:22:11.951Z,3470
2022-11-15T13:23:11.891Z,3540
2022-11-15T13:24:11.982Z,3556
2022-11-15T13:25:11.878Z,3552.
2022-11-15T13:26:11.845Z,3530
2022-11-15T13:27:25.488Z,3508.
2022-11-15T13:28:12.044Z,3400
2022-11-15T13:29:11.799Z,3300
2022-11-15T13:30:11.771Z,3250
2022-11-15T13:31:30.471Z,3160
2022-11-15T13:32:11.699Z,3060
2022-11-15T13:33:11.399Z,2990
2022-11-15T13:34:29.272Z,2900
2022-11-15T13:35:11.388Z,2891
2022-11-15T13:36:11.246Z,2898
2022-11-15T13:37:11.282Z,2880
2022-11-15T13:38:11.938Z,2870
2022-11-15T13:39:12.106Z,2900
2022-11-15T13:40:12.098Z,3040
2022-11-15T13:41:11.989Z,3100
2022-11-15T13:42:11.415Z,3300
2022-11-15T13:43:11.693Z,3000
2022-11-15T13:44:11.928Z,4000
2022-11-15T13:45:11.922Z,4000